createdAt,value
2023-03-08T00:02:44.853Z,98506.47
2023-03-08T00:07:53.577Z,98519.17
2023-03-08T00:12:57.325Z,98522.30
2023-03-08T00:18:01.113Z,98521.97
2023-03-08T00:23:07.493Z,98528.52
2023-03-08T00:28:13.901Z,98530.77
2023-03-08T00:33:17.597Z,98533.91
2023-03-08T00:38:21.463Z,98532.33
2023-03-08T00:43:25.766Z,98532.48
2023-03-08T00:48:29.649Z,98532.88
2023-03-08T00:53:33.454Z,98534.64
2023-03-08T00:58:39.717Z,98535.58
2023-03-08T01:03:44.591Z,98545.17
2023-03-08T01:08:48.650Z,98552.60
2023-03-08T01:13:53.372Z,98560.30
2023-03-08T01:18:58.357Z,98563.36
2023-03-08T01:24:02.316Z,98567.93
2023-03-08T01:29:07.526Z,98573.34
2023-03-08T01:34:12.057Z,98569.13
2023-03-08T01:39:16.034Z,98560.64
2023-03-08T01:44:24.029Z,98565.95
2023-03-08T01:49:34.444Z,98579.92
2023-03-08T01:54:44.394Z,98585.96
2023-03-08T01:59:56.417Z,98589.39
2023-03-08T02:05:00.446Z,98602.84
2023-03-08T02:10:07.921Z,98608.86
2023-03-08T02:15:14.709Z,98603.56
2023-03-08T02:20:35.961Z,98617.02
2023-03-08T02:26:00.289Z,98620.80
2023-03-08T02:31:04.192Z,98612.00
2023-03-08T02:36:13.267Z,98615.98
2023-03-08T02:41:17.184Z,98626.23
2023-03-08T02:46:21.282Z,98632.14
2023-03-08T02:51:25.131Z,98645.27
2023-03-08T02:56:28.898Z,98646.70
2023-03-08T03:01:32.918Z,98649.48
2023-03-08T03:06:37.202Z,98658.82
2023-03-08T03:11:43.670Z,98654.91
2023-03-08T03:16:47.751Z,98657.00
2023-03-08T03:21:52.296Z,98659.43
2023-03-08T03:26:56.653Z,98665.13
2023-03-08T03:32:02.172Z,98674.67
2023-03-08T03:37:06.416Z,98681.52
2023-03-08T03:42:11.612Z,98682.38
2023-03-08T03:47:19.249Z,98687.46
2023-03-08T03:52:26.279Z,98693.02
2023-03-08T03:57:41.769Z,98693.85
2023-03-08T04:02:48.369Z,98704.50
2023-03-08T04:07:54.779Z,98710.89
2023-03-08T04:13:05.412Z,98714.77
2023-03-08T04:18:09.796Z,98722.86
2023-03-08T04:23:15.244Z,98733.58
2023-03-08T04:28:21.628Z,98734.41
2023-03-08T04:33:26.879Z,98732.54
2023-03-08T04:38:31.517Z,98731.52
2023-03-08T04:43:41.295Z,98719.97
2023-03-08T04:48:46.314Z,98724.10
2023-03-08T04:53:58.304Z,98728.34
2023-03-08T04:59:04.140Z,98734.52
2023-03-08T05:04:11.167Z,98747.02
2023-03-08T05:09:16.744Z,98746.02
2023-03-08T05:14:22.976Z,98747.50
2023-03-08T05:19:27.488Z,98746.78
2023-03-08T05:24:32.930Z,98756.61
2023-03-08T05:29:41.389Z,98764.46
2023-03-08T05:34:45.594Z,98763.35
2023-03-08T05:39:54.854Z,98766.91
2023-03-08T05:45:00.110Z,98782.11
2023-03-08T05:50:07.347Z,98786.85
2023-03-08T05:55:19.144Z,98798.89
2023-03-08T06:00:24.744Z,98793.98
2023-03-08T06:05:30.944Z,98793.19
2023-03-08T06:10:37.673Z,98800.33
2023-03-08T06:15:43.366Z,98805.21
2023-03-08T06:21:09.258Z,98802.53
2023-03-08T06:26:16.356Z,98804.68
2023-03-08T06:31:39.977Z,98815.35
2023-03-08T06:36:44.018Z,98820.05
2023-03-08T06:41:49.333Z,98823.91
2023-03-08T06:46:54.080Z,98830.84
2023-03-08T06:51:57.903Z,98832.05
2023-03-08T06:57:01.960Z,98836.90
2023-03-08T07:02:05.695Z,98841.23
2023-03-08T07:07:09.541Z,98847.66
2023-03-08T07:12:13.292Z,98834.20
2023-03-08T07:17:16.981Z,98841.09
2023-03-08T07:22:20.679Z,98840.30
2023-03-08T07:27:25.107Z,98841.40
2023-03-08T07:32:29.430Z,98852.74
2023-03-08T07:37:33.675Z,98853.23
2023-03-08T07:42:37.387Z,98867.34
2023-03-08T07:47:52.904Z,98874.51
2023-03-08T07:52:56.659Z,98864.41
2023-03-08T07:58:00.391Z,98861.55
2023-03-08T08:03:04.365Z,98860.86
2023-03-08T08:08:08.126Z,98865.80
2023-03-08T08:13:11.958Z,98861.20
2023-03-08T08:18:15.655Z,98862.92
2023-03-08T08:23:19.965Z,98868.41
2023-03-08T08:28:24.831Z,98868.47
2023-03-08T08:33:29.468Z,98875.98
2023-03-08T08:38:33.218Z,98875.47
2023-03-08T08:43:37.633Z,98873.04
2023-03-08T08:48:42.084Z,98866.70
2023-03-08T08:53:45.699Z,98873.64
2023-03-08T08:58:49.656Z,98855.25
2023-03-08T09:03:53.667Z,98855.65
2023-03-08T09:08:59.122Z,98855.55
2023-03-08T09:14:02.885Z,98856.77
2023-03-08T09:19:06.707Z,98848.07
2023-03-08T09:24:12.143Z,98845.60
2023-03-08T09:29:16.131Z,98842.47
2023-03-08T09:34:19.827Z,98843.20
2023-03-08T09:39:23.495Z,98839.54
2023-03-08T09:44:48.648Z,98837.23
2023-03-08T09:49:55.860Z,98839.34
2023-03-08T09:55:02.420Z,98834.58
2023-03-08T10:00:09.976Z,98826.98
2023-03-08T10:05:37.572Z,98814.23
2023-03-08T10:10:49.421Z,98806.20
2023-03-08T10:16:17.490Z,98798.39
2023-03-08T10:21:25.253Z,98791.17
2023-03-08T10:26:29.463Z,98791.59
2023-03-08T10:31:34.216Z,98782.91
2023-03-08T10:36:51.996Z,98780.66
2023-03-08T10:42:00.812Z,98777.34
2023-03-08T10:47:05.792Z,98769.36
2023-03-08T10:52:27.637Z,98767.19
2023-03-08T10:57:32.287Z,98769.11
2023-03-08T11:02:36.226Z,98759.75
2023-03-08T11:07:50.848Z,98751.98
2023-03-08T11:13:16.245Z,98748.90
2023-03-08T11:18:58.735Z,98737.56
2023-03-08T11:24:32.019Z,98722.17
2023-03-08T11:29:47.699Z,98716.85
2023-03-08T11:34:57.625Z,98705.15
2023-03-08T11:40:30.139Z,98695.54
2023-03-08T11:45:45.424Z,98691.84
2023-03-08T11:51:22.763Z,98684.41
2023-03-08T11:56:38.339Z,98679.80
2023-03-08T12:01:46.295Z,98670.59
2023-03-08T12:06:50.812Z,98664.05
2023-03-08T12:11:57.645Z,98656.02
2023-03-08T12:17:40.108Z,98648.67
2023-03-08T12:22:48.219Z,98646.15
2023-03-08T12:28:24.807Z,98634.46
2023-03-08T12:33:30.691Z,98626.55
2023-03-08T12:38:38.541Z,98618.55
2023-03-08T12:43:42.501Z,98611.39
2023-03-08T12:49:06.592Z,98602.84
2023-03-08T12:54:20.921Z,98591.80
2023-03-08T12:59:33.168Z,98587.91
2023-03-08T13:04:41.820Z,98572.98
2023-03-08T13:10:30.386Z,98564.54
2023-03-08T13:29:34.926Z,98535.40
2023-03-08T13:34:42.158Z,98530.35
2023-03-08T13:40:02.369Z,98520.42
2023-03-08T13:45:19.693Z,98506.85
2023-03-08T13:50:43.453Z,98506.88
2023-03-08T13:55:51.645Z,98497.53
2023-03-08T14:01:02.103Z,98494.30
2023-03-08T14:06:30.578Z,98489.13
2023-03-08T14:11:40.510Z,98478.77
2023-03-08T14:16:44.421Z,98468.65
2023-03-08T14:21:55.163Z,98468.57
2023-03-08T14:27:07.675Z,98461.73
2023-03-08T14:32:11.430Z,98452.09
2023-03-08T14:37:24.351Z,98447.84
2023-03-08T14:42:30.165Z,98447.19
2023-03-08T14:47:36.059Z,98445.71
2023-03-08T14:52:46.973Z,98446.38
2023-03-08T14:57:58.107Z,98444.61
2023-03-08T15:03:01.879Z,98443.83
2023-03-08T15:08:07.416Z,98438.09
2023-03-08T15:13:16.734Z,98436.75
2023-03-08T15:18:25.128Z,98432.86
2023-03-08T15:23:34.548Z,98424.67
2023-03-08T15:28:38.777Z,98411.54
2023-03-08T15:33:42.410Z,98406.79
2023-03-08T15:38:46.351Z,98401.59
2023-03-08T15:43:51.758Z,98401.45
2023-03-08T15:48:55.742Z,98398.77
2023-03-08T15:53:59.530Z,98397.77
2023-03-08T15:59:03.656Z,98394.40
2023-03-08T16:04:07.473Z,98397.65
2023-03-08T16:09:11.323Z,98385.73
2023-03-08T16:14:18.041Z,98380.13
2023-03-08T16:19:21.698Z,98374.92
2023-03-08T16:24:25.473Z,98357.95
2023-03-08T16:29:30.686Z,98356.18
2023-03-08T16:34:36.660Z,98349.45
2023-03-08T16:39:41.771Z,98340.89
2023-03-08T16:44:53.778Z,98338.48
2023-03-08T16:49:59.454Z,98341.67
2023-03-08T16:55:03.648Z,98353.98
2023-03-08T17:00:12.594Z,98345.24
2023-03-08T17:05:16.389Z,98322.52
2023-03-08T17:10:20.188Z,98318.64
2023-03-08T17:15:24.238Z,98314.24
2023-03-08T17:20:28.468Z,98307.11
2023-03-08T17:25:38.579Z,98307.20
2023-03-08T17:30:47.408Z,98302.52
2023-03-08T17:35:53.860Z,98284.83
2023-03-08T17:40:58.227Z,98286.13
2023-03-08T17:46:08.105Z,98283.77
2023-03-08T17:51:15.725Z,98278.65
2023-03-08T17:56:29.882Z,98269.72
2023-03-08T18:01:39.186Z,98257.11
2023-03-08T18:06:46.503Z,98247.25
2023-03-08T18:11:51.467Z,98239.52
2023-03-08T18:16:56.283Z,98228.17
2023-03-08T18:22:05.065Z,98217.98
2023-03-08T18:27:10.449Z,98213.85
2023-03-08T18:32:16.466Z,98217.41
2023-03-08T18:37:26.675Z,98208.52
2023-03-08T18:42:34.743Z,98200.80
2023-03-08T18:47:42.104Z,98193.38
2023-03-08T18:52:50.820Z,98191.33
2023-03-08T18:57:56.574Z,98191.19
2023-03-08T19:03:02.121Z,98181.25
2023-03-08T19:08:08.333Z,98167.74
2023-03-08T19:13:14.704Z,98159.85
2023-03-08T19:18:21.702Z,98144.41
2023-03-08T19:23:35.470Z,98141.16
2023-03-08T19:28:41.392Z,98146.48
2023-03-08T19:33:50.650Z,98148.56
2023-03-08T19:38:58.711Z,98145.18
2023-03-08T19:44:23.838Z,98141.81
2023-03-08T19:49:36.800Z,98143.45
2023-03-08T19:54:48.177Z,98143.88
2023-03-08T19:59:53.150Z,98139.31
2023-03-08T20:05:05.855Z,98140.73
2023-03-08T20:10:18.959Z,98144.33
2023-03-08T20:15:24.916Z,98137.58
2023-03-08T20:20:34.785Z,98134.05
2023-03-08T20:25:42.413Z,98130.32
2023-03-08T20:30:51.420Z,98128.82
2023-03-08T20:36:02.430Z,98133.58
2023-03-08T20:41:20.763Z,98130.64
2023-03-08T20:46:32.152Z,98125.50
2023-03-08T20:51:40.522Z,98125.91
2023-03-08T20:56:47.747Z,98118.23
2023-03-08T21:01:55.995Z,98112.06
2023-03-08T21:07:02.213Z,98110.88
2023-03-08T21:12:10.913Z,98112.52
2023-03-08T21:17:18.987Z,98109.92
2023-03-08T21:22:27.132Z,98106.31
2023-03-08T21:27:35.807Z,98102.33
2023-03-08T21:32:43.487Z,98093.25
2023-03-08T21:37:52.162Z,98093.52
2023-03-08T21:42:58.016Z,98095.88
2023-03-08T21:48:03.021Z,98096.45
2023-03-08T21:53:08.286Z,98103.25
2023-03-08T21:58:12.125Z,98102.27
2023-03-08T22:03:16.981Z,98100.40
2023-03-08T22:08:20.880Z,98103.04
2023-03-08T22:13:24.871Z,98097.31
2023-03-08T22:18:29.935Z,98092.02
2023-03-08T22:23:33.880Z,98090.05
2023-03-08T22:28:38.734Z,98091.42
2023-03-08T22:33:42.984Z,98091.92
2023-03-08T22:38:47.044Z,98092.79
2023-03-08T22:43:51.511Z,98092.02
2023-03-08T22:48:58.006Z,98095.72
2023-03-08T22:54:04.628Z,98092.30
2023-03-08T22:59:08.358Z,98093.79
2023-03-08T23:04:13.720Z,98091.91
2023-03-08T23:09:17.608Z,98090.11
2023-03-08T23:14:21.541Z,98088.66
2023-03-08T23:19:25.380Z,98086.58
2023-03-08T23:24:29.123Z,98085.27
2023-03-08T23:29:33.001Z,98087.45
2023-03-08T23:34:36.991Z,98082.02
2023-03-08T23:39:40.971Z,98079.14
2023-03-08T23:44:44.681Z,98081.50
2023-03-08T23:49:49.281Z,98086.88
2023-03-08T23:54:53.340Z,98082.48
2023-03-08T23:59:58.686Z,98084.21
